This is the latest recevied weather packets stored in our database for station/object LRTR. If no packets are shown the sender has not sent any weather packets the latest 10 day(s).
| Time | Temp. | Humidity | Pressure | Rain* | Wind** | Luminosity | Snow |
|---|---|---|---|---|---|---|---|
| 1777850289 | 7.22° C | 76% | 1019 hPa | - | - | - | - |
| 1777849397 | 7.22° C | 76% | 1019 hPa | - | - | - | - |
| 1777848485 | 8.89° C | 62% | 1019 hPa | - | - | - | - |
| 1777847597 | 8.89° C | 62% | 1019 hPa | - | - | - | - |
| 1777846702 | 7.78° C | 66% | 1019 hPa | - | - | - | - |
| 1777845827 | 7.78° C | 66% | 1019 hPa | - | - | - | - |
| 1777844892 | 7.78° C | 66% | 1019 hPa | - | - | - | - |
| 1777843985 | 7.78° C | 66% | 1019 hPa | - | - | - | - |
| 1777843085 | 8.89° C | 62% | 1019 hPa | - | - | - | - |
| 1777842185 | 8.89° C | 62% | 1019 hPa | - | - | - | - |
| 1777841292 | 8.89° C | 66% | 1019 hPa | - | - | - | - |
| 1777840459 | 8.89° C | 66% | 1019 hPa | - | - | - | - |
| 1777839485 | 11.11° C | 54% | 1019 hPa | - | - | - | - |
| 1777838594 | 11.11° C | 54% | 1019 hPa | - | - | - | - |
| 1777837710 | 10° C | 58% | 1019 hPa | - | - | - | - |
| 1777836860 | 10° C | 58% | 1019 hPa | - | - | - | - |
| 1777835886 | 12.22° C | 51% | 1019 hPa | - | - | - | - |
| 1777834986 | 12.22° C | 51% | 1019 hPa | - | - | - | - |
| 1777834159 | 13.89° C | 48% | 1019 hPa | - | - | - | - |
| 1777833185 | 13.89° C | 48% | 1019 hPa | - | - | - | - |
| 1777832285 | 13.89° C | 48% | 1018 hPa | - | - | - | - |
| 1777831385 | 13.89° C | 48% | 1018 hPa | - | - | - | - |
| 1777830505 | 16.11° C | 42% | 1018 hPa | - | - | - | - |
| 1777829610 | 16.11° C | 42% | 1018 hPa | - | - | - | - |
| 1777828685 | 17.22° C | 39% | 1018 hPa | - | - | - | - |
* Rain since midnight (hover to see other rain measurements)
** Current wind speed in m/s (hover to see current wind gust speed)